Glenwood, New Jersey
Current Conditions -  °F | °C
As of 10:53 PM on Thursday 27 Nov 2014 (Local Time) from KFWN Reporting Station
Clear Clear  
Wind Chill: 23°   Ceiling: Unl
Heat Index: 28°   Visibility: 10mi
Dew Point: 22°   Wind: 5mph
Humidity: 78%   Direction: 280°W
Pressure: 30.06"   Gusts: NA
Location:  41.25°N, 74.49°W
Report Text: KFWN 280353Z AUTO 28004KT 10SM CLR M02/M06 A3006 RMK AO2 SLP184 T10221056
Loading
Personal Weather Stations






























Interactive Weather Map New forecast layout! Learn more

10-Day Weather Forecast

Advertisements
Track Severe Weather on mobile